Time;durP1;ratioP1;P1;durP2;ratioP2;P2;SDS_P1;SDS_P2;PMS_P1;PMS_P2;Temp;Humidity;BMP_temperature;BMP_pressure;BME280_temperature;BME280_humidity;BME280_pressure;Samples;Min_cycle;Max_cycle;Signal;HPM_P1;HPM_P2
2021/08/28 00:00:30;;;;;;;4.03;3.72;;;14.10;99.90;;;;;;2630338;47;20173;-75
2021/08/28 00:03:01;;;;;;;4.82;4.35;;;14.00;99.90;;;;;;2629934;39;20571;-75
2021/08/28 00:05:30;;;;;;;6.72;4.95;;;13.90;99.90;;;;;;2628085;47;20150;-75
2021/08/28 00:07:59;;;;;;;4.13;3.78;;;14.00;99.90;;;;;;2627350;47;20165;-77
2021/08/28 00:10:28;;;;;;;4.75;3.80;;;14.00;99.90;;;;;;2627219;54;20150;-76
2021/08/28 00:12:57;;;;;;;4.10;3.67;;;13.90;99.90;;;;;;2627258;54;20260;-75
2021/08/28 00:15:26;;;;;;;4.35;4.03;;;14.00;99.90;;;;;;2626606;47;20229;-75
2021/08/28 00:17:55;;;;;;;3.90;3.60;;;14.10;99.90;;;;;;2627936;31;20647;-76
2021/08/28 00:20:26;;;;;;;3.28;3.08;;;14.10;99.90;;;;;;2627889;47;20161;-75
2021/08/28 00:22:55;;;;;;;4.32;4.03;;;14.00;99.90;;;;;;2628994;54;20197;-77
2021/08/28 00:25:24;;;;;;;4.18;3.83;;;14.00;99.90;;;;;;2628770;47;20738;-77
2021/08/28 00:27:53;;;;;;;3.80;3.55;;;14.00;99.90;;;;;;2629048;46;20130;-77
2021/08/28 00:30:22;;;;;;;5.22;3.63;;;13.80;99.90;;;;;;2629960;54;20165;-76
2021/08/28 00:32:50;;;;;;;4.00;3.70;;;13.80;99.90;;;;;;2629937;54;20150;-77
2021/08/28 00:35:19;;;;;;;3.28;3.08;;;14.00;99.90;;;;;;2629695;47;20133;-76
2021/08/28 00:37:51;;;;;;;4.45;4.05;;;13.80;99.90;;;;;;2629895;47;20281;-77
2021/08/28 00:40:20;;;;;;;4.32;4.00;;;13.80;99.90;;;;;;2629364;47;20149;-76
2021/08/28 00:42:51;;;;;;;6.20;4.53;;;13.90;99.90;;;;;;2629822;54;20136;-76
2021/08/28 00:45:20;;;;;;;6.22;4.47;;;13.90;99.90;;;;;;2630157;54;20153;-76
2021/08/28 00:47:53;;;;;;;4.63;4.22;;;13.80;99.90;;;;;;2630306;47;20144;-76
2021/08/28 00:50:22;;;;;;;5.07;4.68;;;13.70;99.90;;;;;;2629742;54;20146;-76
2021/08/28 00:52:54;;;;;;;4.82;4.43;;;13.70;99.90;;;;;;2633598;31;20720;-76
2021/08/28 00:55:24;;;;;;;5.22;4.72;;;13.70;99.90;;;;;;2629520;46;20130;-77
2021/08/28 00:57:53;;;;;;;4.80;4.32;;;14.00;99.90;;;;;;2629293;47;20182;-76
2021/08/28 01:00:23;;;;;;;5.57;5.10;;;14.00;99.90;;;;;;2630063;54;20129;-76
2021/08/28 01:02:53;;;;;;;5.47;4.95;;;14.00;99.90;;;;;;2630840;47;20149;-77
2021/08/28 01:05:27;;;;;;;6.15;5.60;;;13.90;99.90;;;;;;2630966;46;20141;-76
2021/08/28 01:08:11;;;;;;;13.52;5.78;;;13.90;99.90;;;;;;2630816;47;20192;-77
2021/08/28 01:11:10;;;;;;;6.00;5.40;;;13.90;99.90;;;;;;2630876;46;20145;-75
2021/08/28 01:13:56;;;;;;;8.77;6.25;;;13.70;99.90;;;;;;2630452;54;20201;-76
2021/08/28 01:16:27;;;;;;;8.70;6.38;;;13.60;99.90;;;;;;2629807;47;20153;-76
2021/08/28 01:18:59;;;;;;;7.03;6.32;;;14.00;99.90;;;;;;2629816;47;20191;-76
2021/08/28 01:21:33;;;;;;;5.60;5.15;;;14.10;99.90;;;;;;2629801;54;20151;-76
2021/08/28 01:24:24;;;;;;;6.25;5.75;;;14.20;99.90;;;;;;2629576;47;20139;-75
2021/08/28 01:27:18;;;;;;;7.00;6.40;;;14.10;99.90;;;;;;2629129;47;20196;-76
2021/08/28 01:29:52;;;;;;;6.97;6.28;;;14.20;99.90;;;;;;2628298;47;20176;-75
2021/08/28 01:32:22;;;;;;;9.38;6.38;;;14.20;99.90;;;;;;2623031;54;20155;-75
2021/08/28 01:34:52;;;;;;;6.82;6.22;;;14.20;99.90;;;;;;2621169;54;20169;-75
2021/08/28 01:37:21;;;;;;;6.70;6.20;;;14.20;99.90;;;;;;2622261;54;20137;-75
2021/08/28 01:40:04;;;;;;;7.28;6.68;;;14.00;99.90;;;;;;2621572;47;20232;-75
2021/08/28 01:42:41;;;;;;;7.15;6.63;;;13.80;99.90;;;;;;2621155;47;20175;-75
2021/08/28 01:45:15;;;;;;;7.47;6.78;;;13.80;99.90;;;;;;2620756;47;20153;-74
2021/08/28 01:47:48;;;;;;;8.02;7.32;;;13.80;99.90;;;;;;2621163;47;20197;-75
2021/08/28 01:50:22;;;;;;;7.30;6.25;;;13.90;99.90;;;;;;2620795;54;20161;-75
2021/08/28 01:52:52;;;;;;;8.15;7.53;;;13.80;99.90;;;;;;2620598;47;20277;-75
2021/08/28 01:55:26;;;;;;;7.25;6.75;;;13.80;99.90;;;;;;2620229;47;20244;-75
2021/08/28 01:58:02;;;;;;;8.43;7.63;;;13.90;99.90;;;;;;2620832;54;20175;-75
2021/08/28 02:00:54;;;;;;;8.10;7.38;;;13.80;99.90;;;;;;2620484;47;20153;-75
2021/08/28 02:03:36;;;;;;;8.32;7.57;;;13.70;99.90;;;;;;2620401;47;20180;-75
2021/08/28 02:06:07;;;;;;;8.05;7.28;;;13.70;99.90;;;;;;2620254;47;20157;-75
2021/08/28 02:08:52;;;;;;;8.48;7.78;;;13.70;99.90;;;;;;2620793;54;20160;-76
2021/08/28 02:11:26;;;;;;;9.65;8.30;;;13.80;99.90;;;;;;2620684;54;20521;-75
2021/08/28 02:14:00;;;;;;;9.25;8.35;;;13.90;99.90;;;;;;2620868;47;20679;-75
2021/08/28 02:16:35;;;;;;;9.18;8.15;;;14.00;99.90;;;;;;2620650;54;20145;-75
2021/08/28 02:19:11;;;;;;;9.73;8.85;;;14.00;99.90;;;;;;2619499;54;20187;-76
2021/08/28 02:22:14;;;;;;;11.60;10.32;;;14.00;99.90;;;;;;2621624;39;20563;-75
2021/08/28 02:25:06;;;;;;;9.23;8.43;;;14.20;99.90;;;;;;2620964;54;20133;-74
2021/08/28 02:27:45;;;;;;;12.95;8.93;;;14.20;99.90;;;;;;2620801;54;20142;-75
2021/08/28 02:30:17;;;;;;;9.48;8.77;;;14.10;99.90;;;;;;2620804;54;20157;-75
2021/08/28 02:33:09;;;;;;;10.15;9.35;;;14.20;99.90;;;;;;2621202;46;20169;-75
2021/08/28 02:35:43;;;;;;;10.40;9.57;;;14.30;99.90;;;;;;2620695;47;20273;-75
2021/08/28 02:38:13;;;;;;;10.50;9.68;;;14.20;99.90;;;;;;2625737;54;20176;-76
2021/08/28 02:40:43;;;;;;;9.93;9.13;;;14.10;99.90;;;;;;2628172;47;20156;-75
2021/08/28 02:43:13;;;;;;;10.70;9.80;;;14.00;99.90;;;;;;2628469;47;20702;-75
2021/08/28 02:45:43;;;;;;;10.27;9.38;;;14.00;99.90;;;;;;2628164;54;20209;-75
2021/08/28 02:48:17;;;;;;;12.32;11.23;;;13.80;99.90;;;;;;2628345;47;20204;-75
2021/08/28 02:50:48;;;;;;;10.90;9.70;;;13.70;99.90;;;;;;2628447;54;20184;-75
2021/08/28 02:53:22;;;;;;;14.25;13.02;;;13.70;99.90;;;;;;2628195;54;20184;-75
2021/08/28 02:55:52;;;;;;;12.38;11.18;;;13.70;99.90;;;;;;2627857;54;20672;-75
2021/08/28 02:58:23;;;;;;;13.30;12.13;;;13.80;99.90;;;;;;2628168;47;20165;-76
2021/08/28 03:00:54;;;;;;;14.07;12.90;;;13.70;99.90;;;;;;2627858;47;20157;-76
2021/08/28 03:03:28;;;;;;;14.82;13.40;;;13.80;99.90;;;;;;2628203;47;20160;-75
2021/08/28 03:05:59;;;;;;;12.32;11.32;;;13.90;99.90;;;;;;2628378;47;20182;-75
2021/08/28 03:08:33;;;;;;;12.73;11.65;;;14.00;99.90;;;;;;2628618;47;20256;-76
2021/08/28 03:11:03;;;;;;;13.10;11.95;;;13.80;99.90;;;;;;2627923;47;20153;-74
2021/08/28 03:13:34;;;;;;;13.68;12.48;;;13.70;99.90;;;;;;2628275;47;20149;-75
2021/08/28 03:16:02;;;;;;;12.88;11.77;;;13.50;99.90;;;;;;2628089;47;20704;-75
2021/08/28 03:18:40;;;;;;;12.55;11.40;;;13.50;99.90;;;;;;2627915;46;20180;-75
2021/08/28 03:21:10;;;;;;;11.98;10.98;;;13.40;99.90;;;;;;2625422;54;20142;-75
2021/08/28 03:23:43;;;;;;;12.30;11.30;;;13.40;99.90;;;;;;2621208;46;20167;-75
2021/08/28 03:26:13;;;;;;;12.23;11.13;;;13.50;99.90;;;;;;2620247;47;20152;-75
2021/08/28 03:28:43;;;;;;;13.30;12.18;;;13.50;99.90;;;;;;2621429;39;20556;-76
2021/08/28 03:31:13;;;;;;;13.93;12.82;;;13.50;99.90;;;;;;2620578;54;20164;-75
2021/08/28 03:33:46;;;;;;;15.25;13.82;;;13.50;99.90;;;;;;2620892;54;20684;-75
2021/08/28 03:36:17;;;;;;;13.27;12.10;;;13.50;99.90;;;;;;2621365;54;20198;-75
2021/08/28 03:38:48;;;;;;;15.02;13.70;;;13.40;99.90;;;;;;2621613;54;20727;-75
2021/08/28 03:41:18;;;;;;;15.93;14.52;;;13.40;99.90;;;;;;2620688;47;20153;-75
2021/08/28 03:43:49;;;;;;;15.93;14.50;;;13.40;99.90;;;;;;2620602;54;20698;-75
2021/08/28 03:46:18;;;;;;;14.93;13.63;;;13.50;99.90;;;;;;2620816;39;20559;-76
2021/08/28 03:48:51;;;;;;;15.10;13.73;;;13.50;99.90;;;;;;2620411;47;20260;-76
2021/08/28 03:51:20;;;;;;;15.88;14.35;;;13.40;99.90;;;;;;2627528;47;20240;-75
2021/08/28 03:53:49;;;;;;;16.10;14.52;;;13.40;99.90;;;;;;2628981;31;20703;-76
2021/08/28 03:56:18;;;;;;;14.43;13.23;;;13.40;99.90;;;;;;2627077;54;20184;-75
2021/08/28 03:58:47;;;;;;;15.93;14.45;;;13.40;99.90;;;;;;2627656;47;20179;-75
2021/08/28 04:01:16;;;;;;;17.10;15.45;;;13.40;99.90;;;;;;2625841;54;20154;-75
2021/08/28 04:03:45;;;;;;;15.20;13.90;;;13.40;99.90;;;;;;2624970;54;20236;-76
2021/08/28 04:06:17;;;;;;;15.70;14.45;;;13.40;99.90;;;;;;2622103;47;20240;-76
2021/08/28 04:08:48;;;;;;;16.65;15.15;;;13.40;99.90;;;;;;2620688;47;20169;-76
2021/08/28 04:11:17;;;;;;;16.85;15.27;;;13.50;99.90;;;;;;2621092;47;20153;-76
2021/08/28 04:13:46;;;;;;;15.18;13.88;;;13.40;99.90;;;;;;2621058;46;20169;-75
2021/08/28 04:16:15;;;;;;;15.20;13.80;;;13.40;99.90;;;;;;2621313;54;20164;-75
2021/08/28 04:18:48;;;;;;;15.57;14.18;;;13.50;99.90;;;;;;2621108;47;20817;-75
2021/08/28 04:21:48;;;;;;;15.13;13.82;;;13.70;99.90;;;;;;2621431;54;20161;-76
2021/08/28 04:24:56;;;;;;;15.55;13.98;;;13.80;99.90;;;;;;2619901;46;20171;-75
2021/08/28 04:27:54;;;;;;;15.10;13.82;;;13.90;99.90;;;;;;2619913;54;20177;-75
2021/08/28 04:30:29;;;;;;;15.18;13.85;;;13.90;99.90;;;;;;2620741;54;20152;-75
2021/08/28 04:32:59;;;;;;;14.55;13.25;;;13.90;99.90;;;;;;2621068;47;20698;-74
2021/08/28 04:35:28;;;;;;;15.68;14.23;;;13.90;99.90;;;;;;2619828;47;20684;-74
2021/08/28 04:37:59;;;;;;;14.10;12.57;;;13.90;99.90;;;;;;2619288;54;20693;-76
2021/08/28 04:40:28;;;;;;;14.50;13.18;;;13.80;99.90;;;;;;2619429;54;20165;-76
2021/08/28 04:42:59;;;;;;;13.68;12.48;;;13.60;99.90;;;;;;2619229;54;20212;-74
2021/08/28 04:45:42;;;;;;;13.13;12.02;;;13.70;99.90;;;;;;2619175;54;20155;-75
2021/08/28 04:48:25;;;;;;;15.13;13.43;;;13.80;99.90;;;;;;2619179;47;20185;-75
2021/08/28 04:50:55;;;;;;;14.30;13.00;;;13.80;99.90;;;;;;2619054;46;20169;-76
2021/08/28 04:53:31;;;;;;;15.05;13.65;;;13.80;99.90;;;;;;2618721;54;20152;-75
2021/08/28 04:56:00;;;;;;;13.68;12.35;;;13.90;99.90;;;;;;2619293;39;20581;-74
2021/08/28 04:58:29;;;;;;;12.65;11.52;;;13.80;99.90;;;;;;2619527;54;20241;-75
2021/08/28 05:01:16;;;;;;;13.95;12.65;;;13.90;99.90;;;;;;2618655;47;20244;-75
2021/08/28 05:04:11;;;;;;;14.60;13.20;;;13.90;99.90;;;;;;2624226;54;20688;-75
2021/08/28 05:06:40;;;;;;;12.15;11.07;;;14.00;99.90;;;;;;2627880;47;20184;-74
2021/08/28 05:09:15;;;;;;;14.23;12.88;;;14.10;99.90;;;;;;2623607;54;20722;-74
2021/08/28 05:11:44;;;;;;;14.93;13.52;;;14.20;99.90;;;;;;2619815;46;20160;-73
2021/08/28 05:14:12;;;;;;;15.60;14.10;;;14.20;99.90;;;;;;2619667;47;20715;-74
2021/08/28 05:16:41;;;;;;;15.95;14.55;;;14.20;99.90;;;;;;2619427;39;20553;-75
2021/08/28 05:19:30;;;;;;;14.95;13.43;;;14.30;99.90;;;;;;2619717;54;20153;-74
2021/08/28 05:22:00;;;;;;;13.77;12.43;;;14.30;99.90;;;;;;2619300;46;20196;-74
2021/08/28 05:24:47;;;;;;;14.95;13.52;;;14.30;99.90;;;;;;2619035;54;20157;-73
2021/08/28 05:27:15;;;;;;;13.80;12.60;;;14.20;99.90;;;;;;2619385;47;20153;-75
2021/08/28 05:29:44;;;;;;;14.38;13.07;;;14.30;99.90;;;;;;2618927;47;20176;-74
2021/08/28 05:32:13;;;;;;;15.23;13.75;;;14.30;99.90;;;;;;2619085;47;20152;-73
2021/08/28 05:34:43;;;;;;;16.63;15.15;;;14.40;99.90;;;;;;2619442;39;20538;-75
2021/08/28 05:37:31;;;;;;;15.05;13.63;;;14.40;99.90;;;;;;2619434;39;20529;-75
2021/08/28 05:40:19;;;;;;;15.80;14.15;;;14.30;99.90;;;;;;2619522;39;20578;-75
2021/08/28 05:42:48;;;;;;;15.45;14.05;;;14.40;99.90;;;;;;2618693;54;20163;-75
2021/08/28 05:45:17;;;;;;;14.32;13.02;;;14.40;99.90;;;;;;2618428;54;20164;-74
2021/08/28 05:47:46;;;;;;;14.52;13.13;;;14.40;99.90;;;;;;2618232;54;20153;-75
2021/08/28 05:50:20;;;;;;;17.00;15.43;;;14.40;99.90;;;;;;2618753;47;20180;-75
2021/08/28 05:52:49;;;;;;;14.35;13.05;;;14.40;99.90;;;;;;2618603;54;20149;-75
2021/08/28 05:55:21;;;;;;;14.52;13.18;;;14.20;99.90;;;;;;2627569;47;20153;-76
2021/08/28 05:57:50;;;;;;;15.27;13.88;;;14.10;99.90;;;;;;2629613;49;20172;-75
2021/08/28 06:00:21;;;;;;;13.43;12.20;;;14.20;99.90;;;;;;2629748;47;20216;-78
2021/08/28 18:01:09;;;;;;;5.85;5.35;;;14.30;99.90;;;;;;2628191;46;20227;-75
2021/08/28 18:03:56;;;;;;;4.05;3.58;;;16.90;99.90;;;;;;2624504;54;20196;-75
2021/08/28 18:06:25;;;;;;;3.88;3.58;;;17.00;99.90;;;;;;2624856;47;20188;-76
2021/08/28 18:08:54;;;;;;;4.22;3.92;;;17.20;99.90;;;;;;2625370;47;20153;-75
2021/08/28 18:11:22;;;;;;;3.85;3.65;;;17.30;99.90;;;;;;2624803;47;20679;-76
2021/08/28 18:13:51;;;;;;;3.80;3.50;;;17.50;99.90;;;;;;2625102;47;20656;-76
2021/08/28 18:16:22;;;;;;;3.70;3.50;;;17.30;99.90;;;;;;2624530;54;20160;-75
2021/08/28 18:18:51;;;;;;;3.83;3.60;;;17.20;99.90;;;;;;2625787;54;20161;-77
2021/08/28 18:21:21;;;;;;;3.63;3.33;;;17.30;99.90;;;;;;2625599;47;20288;-76
2021/08/28 18:23:50;;;;;;;4.05;3.75;;;17.20;99.90;;;;;;2625458;47;20680;-76
2021/08/28 18:26:19;;;;;;;4.50;4.15;;;17.10;99.90;;;;;;2624957;47;20145;-76
2021/08/28 18:28:47;;;;;;;3.92;3.63;;;17.20;99.90;;;;;;2625945;54;20153;-76
2021/08/28 18:31:16;;;;;;;4.53;3.08;;;17.30;99.90;;;;;;2625697;47;20160;-76
2021/08/28 18:33:47;;;;;;;3.50;3.20;;;17.10;99.90;;;;;;2626916;47;20161;-75
2021/08/28 18:36:16;;;;;;;3.42;3.13;;;17.10;99.90;;;;;;2627418;39;20577;-76
2021/08/28 18:38:45;;;;;;;4.10;3.78;;;16.90;99.90;;;;;;2625689;54;20161;-76
2021/08/28 18:41:14;;;;;;;8.07;3.08;;;17.00;99.90;;;;;;2625757;47;20153;-75
2021/08/28 18:43:46;;;;;;;4.20;3.78;;;16.90;99.90;;;;;;2625997;39;20579;-76
2021/08/28 18:46:15;;;;;;;3.53;3.25;;;16.90;99.90;;;;;;2626023;54;20706;-75
2021/08/28 18:48:46;;;;;;;9.98;9.10;;;16.90;99.90;;;;;;2625566;54;20153;-75
2021/08/28 18:51:15;;;;;;;5.07;4.68;;;16.70;99.90;;;;;;2625601;47;20155;-75
2021/08/28 18:53:45;;;;;;;4.93;4.43;;;16.80;99.90;;;;;;2625592;54;20157;-75
2021/08/28 18:56:13;;;;;;;5.15;4.70;;;17.00;99.90;;;;;;2625483;46;20677;-75
2021/08/28 18:58:42;;;;;;;4.60;4.30;;;16.90;99.90;;;;;;2625869;54;20164;-76
2021/08/28 19:01:11;;;;;;;5.00;4.60;;;17.00;99.90;;;;;;2625147;54;20145;-75
2021/08/28 19:03:40;;;;;;;6.03;5.53;;;16.90;99.90;;;;;;2626167;47;20149;-75
2021/08/28 19:06:11;;;;;;;4.65;4.25;;;17.10;99.90;;;;;;2626437;47;20164;-76
2021/08/28 19:08:40;;;;;;;5.20;4.80;;;17.00;99.90;;;;;;2628180;47;20180;-76
2021/08/28 19:11:10;;;;;;;7.80;5.05;;;16.90;99.90;;;;;;2628070;47;20157;-76
2021/08/28 19:13:39;;;;;;;5.40;4.97;;;16.70;99.90;;;;;;2626150;54;20176;-75
2021/08/28 19:16:08;;;;;;;5.63;5.28;;;16.70;99.90;;;;;;2624685;46;20284;-75
2021/08/28 19:18:37;;;;;;;4.57;4.15;;;16.60;99.90;;;;;;2627689;47;20153;-74
2021/08/28 19:21:05;;;;;;;4.82;4.53;;;16.60;99.90;;;;;;2624355;47;20175;-74
2021/08/28 19:23:37;;;;;;;4.82;4.43;;;16.70;99.90;;;;;;2624500;39;20590;-75
2021/08/28 19:26:06;;;;;;;4.45;4.15;;;16.80;99.90;;;;;;2623142;47;20284;-75
2021/08/28 19:28:34;;;;;;;4.82;4.50;;;16.80;99.90;;;;;;2622702;54;20158;-75
2021/08/28 19:31:03;;;;;;;19.33;17.35;;;16.80;99.90;;;;;;2622796;54;20215;-75
2021/08/28 19:33:32;;;;;;;5.95;5.50;;;16.70;99.90;;;;;;2621933;54;20699;-75
2021/08/28 19:36:00;;;;;;;5.22;4.82;;;16.80;99.90;;;;;;2622741;54;20154;-75
2021/08/28 19:38:29;;;;;;;5.13;4.68;;;16.70;99.90;;;;;;2622788;54;20683;-75
2021/08/28 19:41:01;;;;;;;6.03;5.53;;;16.70;99.90;;;;;;2622985;39;20256;-74
2021/08/28 19:43:30;;;;;;;7.07;6.13;;;16.60;99.90;;;;;;2622649;47;20149;-76
2021/08/28 19:45:58;;;;;;;6.80;6.20;;;16.60;99.90;;;;;;2622156;54;20210;-74
2021/08/28 19:48:27;;;;;;;5.45;4.95;;;16.60;99.90;;;;;;2622510;54;20695;-75
2021/08/28 19:50:56;;;;;;;7.45;6.85;;;16.70;99.90;;;;;;2621995;54;20188;-76
2021/08/28 19:53:25;;;;;;;7.18;6.57;;;16.70;99.90;;;;;;2622064;54;20152;-76
2021/08/28 19:55:54;;;;;;;8.32;7.72;;;16.60;99.90;;;;;;2622122;47;20157;-76
2021/08/28 19:58:26;;;;;;;6.75;6.18;;;16.60;99.90;;;;;;2622093;47;20680;-76
2021/08/28 20:00:55;;;;;;;7.18;6.57;;;16.50;99.90;;;;;;2622102;54;20165;-76
2021/08/28 20:03:23;;;;;;;5.70;5.13;;;16.40;99.90;;;;;;2621931;47;20152;-75
2021/08/28 20:05:52;;;;;;;5.13;4.72;;;16.40;99.90;;;;;;2621531;47;20154;-76
2021/08/28 20:08:21;;;;;;;7.00;6.40;;;16.60;99.90;;;;;;2622345;54;20163;-77
2021/08/28 20:10:50;;;;;;;7.13;6.53;;;16.70;99.90;;;;;;2622161;47;20177;-76
2021/08/28 20:13:19;;;;;;;7.82;7.13;;;16.40;99.90;;;;;;2622259;47;20148;-75
2021/08/28 20:15:50;;;;;;;6.88;6.28;;;16.50;99.90;;;;;;2622592;39;20578;-76
2021/08/28 20:18:21;;;;;;;5.50;5.05;;;16.60;99.90;;;;;;2622102;54;20153;-76
2021/08/28 20:20:50;;;;;;;5.50;5.03;;;16.50;99.90;;;;;;2621736;54;20172;-76
2021/08/28 20:23:19;;;;;;;4.15;3.85;;;16.40;99.90;;;;;;2621612;54;20145;-76
2021/08/28 20:25:50;;;;;;;4.75;4.35;;;16.50;99.90;;;;;;2620815;54;20157;-76
2021/08/28 20:28:18;;;;;;;4.13;3.72;;;16.30;99.90;;;;;;2622730;54;20266;-76
2021/08/28 20:30:50;;;;;;;4.03;3.70;;;16.30;99.90;;;;;;2622807;54;20149;-75
2021/08/28 20:33:19;;;;;;;3.90;3.60;;;16.60;99.90;;;;;;2621155;47;20157;-74
2021/08/28 20:35:50;;;;;;;3.58;3.28;;;16.50;99.90;;;;;;2622597;54;20146;-75
2021/08/28 20:38:18;;;;;;;3.90;3.60;;;16.50;99.90;;;;;;2622835;54;20160;-76
2021/08/28 20:40:47;;;;;;;4.00;3.70;;;16.40;99.90;;;;;;2622977;39;20600;-76
2021/08/28 20:43:16;;;;;;;3.25;2.95;;;16.60;99.90;;;;;;2624044;54;20145;-75
2021/08/28 20:45:45;;;;;;;4.05;3.58;;;16.40;99.90;;;;;;2622969;54;20153;-76
2021/08/28 20:48:16;;;;;;;5.65;3.85;;;16.40;99.90;;;;;;2623102;39;20570;-75
2021/08/28 20:50:45;;;;;;;4.72;4.15;;;16.40;99.90;;;;;;2621463;47;20215;-76
2021/08/28 20:53:14;;;;;;;6.82;4.68;;;16.30;99.90;;;;;;2622217;39;20603;-76
2021/08/28 20:55:44;;;;;;;4.72;4.25;;;16.40;99.90;;;;;;2621557;54;20150;-76
2021/08/28 20:58:13;;;;;;;6.15;5.55;;;16.30;99.90;;;;;;2621381;39;20570;-75
2021/08/28 21:00:42;;;;;;;5.35;3.95;;;16.40;99.90;;;;;;2621462;47;20169;-77
2021/08/28 21:03:10;;;;;;;4.65;4.25;;;16.10;99.90;;;;;;2621089;46;20153;-76
2021/08/28 21:05:42;;;;;;;7.10;4.80;;;16.20;99.90;;;;;;2621285;47;20176;-76
2021/08/28 21:08:11;;;;;;;4.85;4.40;;;16.20;99.90;;;;;;2621575;54;20148;-73
2021/08/28 21:10:39;;;;;;;5.72;4.82;;;16.20;99.90;;;;;;2622287;54;20156;-75
2021/08/28 21:13:08;;;;;;;4.93;4.53;;;16.30;99.90;;;;;;2622017;54;20153;-74
2021/08/28 21:15:37;;;;;;;4.55;4.15;;;16.20;99.90;;;;;;2622517;54;20204;-75
2021/08/28 21:18:06;;;;;;;5.40;4.90;;;16.10;99.90;;;;;;2621563;54;20145;-74
2021/08/28 21:20:35;;;;;;;4.43;4.05;;;16.20;99.90;;;;;;2621943;54;20184;-75
2021/08/28 21:23:06;;;;;;;4.68;4.28;;;16.10;99.90;;;;;;2622672;54;20153;-75
2021/08/28 21:25:35;;;;;;;4.25;3.95;;;16.10;99.90;;;;;;2622209;54;20153;-75
2021/08/28 21:28:03;;;;;;;3.90;3.47;;;16.00;99.90;;;;;;2623502;47;20164;-75
2021/08/28 21:30:32;;;;;;;4.47;4.05;;;16.00;99.90;;;;;;2623733;54;20179;-75
2021/08/28 21:33:01;;;;;;;6.20;3.90;;;16.10;99.90;;;;;;2623363;47;20157;-76
2021/08/28 21:35:30;;;;;;;4.30;3.67;;;16.00;99.90;;;;;;2624733;47;20184;-77
2021/08/28 21:37:58;;;;;;;4.53;3.17;;;16.10;99.90;;;;;;2625352;54;20142;-77
2021/08/28 21:40:34;;;;;;;26.42;23.70;;;16.00;99.90;;;;;;2627974;47;20157;-77
2021/08/28 21:43:02;;;;;;;11.60;10.40;;;16.10;99.90;;;;;;2630084;51;20152;-77
2021/08/28 21:45:31;;;;;;;5.30;4.90;;;16.00;99.90;;;;;;2629755;54;20145;-76
2021/08/28 21:48:00;;;;;;;6.10;5.50;;;16.20;99.90;;;;;;2629877;47;20153;-76
2021/08/28 21:50:29;;;;;;;10.10;4.63;;;16.20;99.90;;;;;;2629798;54;20161;-76
2021/08/28 21:52:57;;;;;;;5.32;4.65;;;16.10;99.90;;;;;;2629662;47;20149;-76
2021/08/28 21:55:27;;;;;;;3.28;2.97;;;16.00;99.90;;;;;;2627680;54;20718;-76
2021/08/28 21:57:58;;;;;;;3.67;3.38;;;16.20;99.90;;;;;;2624449;54;20156;-76
2021/08/28 22:00:30;;;;;;;3.80;3.50;;;16.20;99.90;;;;;;2624679;47;20185;-76
2021/08/28 22:02:59;;;;;;;3.83;3.53;;;16.20;99.90;;;;;;2623678;54;20149;-76
2021/08/28 22:05:28;;;;;;;3.05;2.78;;;16.00;99.90;;;;;;2624512;54;20153;-75
2021/08/28 22:07:57;;;;;;;2.92;2.72;;;16.10;99.90;;;;;;2627064;54;20152;-78
2021/08/28 22:10:25;;;;;;;3.60;3.25;;;16.10;99.90;;;;;;2625351;47;20180;-76
2021/08/28 22:12:55;;;;;;;3.58;3.33;;;16.20;99.90;;;;;;2623056;54;20164;-77
2021/08/28 22:15:26;;;;;;;3.15;2.85;;;16.20;99.90;;;;;;2624026;39;20568;-75
2021/08/28 22:17:55;;;;;;;3.30;3.10;;;16.10;99.90;;;;;;2623154;54;20145;-75
2021/08/28 22:20:24;;;;;;;5.15;4.72;;;16.00;99.90;;;;;;2620899;54;20548;-75
2021/08/28 22:22:55;;;;;;;4.95;3.30;;;16.00;99.90;;;;;;2621243;54;20192;-76
2021/08/28 22:25:24;;;;;;;3.90;3.60;;;16.20;99.90;;;;;;2621058;54;20686;-75
2021/08/28 22:27:53;;;;;;;7.75;7.05;;;16.00;99.90;;;;;;2621252;47;20153;-75
2021/08/28 22:30:22;;;;;;;3.25;2.97;;;16.00;99.90;;;;;;2621369;46;20224;-75
2021/08/28 22:32:53;;;;;;;4.18;3.78;;;16.00;99.90;;;;;;2622129;46;20260;-75
2021/08/28 22:35:22;;;;;;;4.88;3.42;;;16.20;99.90;;;;;;2620953;54;20161;-75
2021/08/28 22:37:51;;;;;;;3.05;2.85;;;16.10;99.90;;;;;;2621814;47;20165;-76
2021/08/28 22:40:20;;;;;;;4.57;3.33;;;16.20;99.90;;;;;;2621933;46;20200;-75
2021/08/28 22:42:48;;;;;;;3.83;3.40;;;16.00;99.90;;;;;;2621701;47;20157;-75
2021/08/28 22:45:17;;;;;;;5.25;3.90;;;16.00;99.90;;;;;;2621363;54;20152;-75
2021/08/28 22:47:46;;;;;;;4.13;3.80;;;16.00;99.90;;;;;;2621492;54;20154;-75
2021/08/28 22:50:17;;;;;;;4.05;3.55;;;16.00;99.90;;;;;;2620993;47;20184;-75
2021/08/28 22:52:46;;;;;;;5.35;4.03;;;16.20;99.90;;;;;;2621586;47;20154;-75
2021/08/28 22:55:15;;;;;;;4.55;4.15;;;16.10;99.90;;;;;;2621415;54;20160;-76
2021/08/28 22:57:44;;;;;;;6.70;4.28;;;16.00;99.90;;;;;;2622062;39;20549;-75
2021/08/28 23:00:14;;;;;;;4.20;3.50;;;16.00;99.90;;;;;;2621471;54;20738;-75
2021/08/28 23:02:43;;;;;;;4.60;4.15;;;16.00;99.90;;;;;;2621556;47;20146;-74
2021/08/28 23:05:12;;;;;;;3.88;3.58;;;16.00;99.90;;;;;;2619107;47;20706;-75
2021/08/28 23:07:44;;;;;;;3.70;3.40;;;15.90;99.90;;;;;;2620668;54;20698;-75
2021/08/28 23:10:14;;;;;;;4.95;3.75;;;15.90;99.90;;;;;;2621226;54;20160;-75
2021/08/28 23:12:45;;;;;;;7.22;4.05;;;15.90;99.90;;;;;;2621647;47;20165;-74
2021/08/28 23:15:14;;;;;;;7.63;4.25;;;15.60;99.90;;;;;;2622605;39;20550;-75
2021/08/28 23:17:42;;;;;;;4.88;4.40;;;15.70;99.90;;;;;;2622091;47;20154;-75
2021/08/28 23:20:13;;;;;;;4.82;4.25;;;15.70;99.90;;;;;;2621777;54;20165;-75
2021/08/28 23:22:44;;;;;;;6.85;4.07;;;15.80;99.90;;;;;;2622048;54;20699;-75
2021/08/28 23:25:13;;;;;;;3.83;3.53;;;15.90;99.90;;;;;;2622153;54;20713;-75
2021/08/28 23:27:42;;;;;;;5.18;4.70;;;15.90;99.90;;;;;;2621699;54;20218;-76
2021/08/28 23:30:13;;;;;;;4.85;4.45;;;15.90;99.90;;;;;;2622176;54;20165;-75
2021/08/28 23:32:42;;;;;;;6.97;4.82;;;15.80;99.90;;;;;;2621790;47;20163;-75
2021/08/28 23:35:12;;;;;;;4.57;4.15;;;15.80;99.90;;;;;;2621568;54;20157;-75
2021/08/28 23:37:43;;;;;;;5.43;4.93;;;15.90;99.90;;;;;;2622205;54;20149;-74
2021/08/28 23:40:13;;;;;;;4.53;4.13;;;16.00;99.90;;;;;;2622486;54;20166;-75
2021/08/28 23:42:42;;;;;;;4.53;4.20;;;15.80;99.90;;;;;;2622725;54;20149;-75
2021/08/28 23:45:13;;;;;;;4.90;4.45;;;15.80;99.90;;;;;;2622087;54;20156;-75
2021/08/28 23:47:42;;;;;;;7.18;4.35;;;15.80;99.90;;;;;;2622425;54;20691;-75
2021/08/28 23:50:12;;;;;;;5.50;4.93;;;15.80;99.90;;;;;;2621914;47;20184;-74
2021/08/28 23:52:43;;;;;;;4.25;3.95;;;15.80;99.90;;;;;;2627798;47;20168;-75
2021/08/28 23:55:14;;;;;;;7.53;4.70;;;15.80;99.90;;;;;;2629232;47;20285;-76
2021/08/28 23:57:43;;;;;;;5.05;4.57;;;15.80;99.90;;;;;;2629474;47;20164;-77
